Norway, Kansas
Current Conditions -  °F | °C
As of 8:55 AM on Saturday 20 Dec 2014 (Local Time) from KCNK Reporting Station
Haze Haze  
Wind Chill: 25°   Ceiling: Unl
Heat Index: 30°   Visibility: 4mi
Dew Point: 29°   Wind: 5mph
Humidity: 96%   Direction: 220°SW
Pressure: 30.09"   Gusts: NA
Location:  39.7°N, 97.77°W
Report Text: KCNK 201455Z AUTO 22004KT 4SM BR CLR M01/M02 A3009 RMK AO2 SLP203 T10111017 52006 $
Loading
Personal Weather Stations






























Interactive Weather Map New forecast layout! Learn more

10-Day Weather Forecast

Advertisements
Track Severe Weather on mobile